createdAt,value
2019-03-31T00:02:26.280Z,83.70
2019-03-31T00:04:54.322Z,82.50
2019-03-31T00:07:22.298Z,83.50
2019-03-31T00:09:50.434Z,83.70
2019-03-31T00:12:18.378Z,84.50
2019-03-31T00:14:46.682Z,83.80
2019-03-31T00:17:14.780Z,83.00
2019-03-31T00:19:42.716Z,82.80
2019-03-31T00:22:12.034Z,80.70
2019-03-31T00:24:40.070Z,82.50
2019-03-31T00:27:08.015Z,82.30
2019-03-31T00:29:35.999Z,84.10
2019-03-31T00:32:04.081Z,81.40
2019-03-31T00:34:32.073Z,84.50
2019-03-31T00:37:01.887Z,84.00
2019-03-31T00:39:29.930Z,79.90
2019-03-31T00:41:57.859Z,81.80
2019-03-31T00:44:25.967Z,83.80
2019-03-31T00:46:53.948Z,80.10
2019-03-31T00:49:23.034Z,81.00
2019-03-31T00:51:51.019Z,83.50
2019-03-31T00:54:18.951Z,84.20
2019-03-31T00:56:47.088Z,83.40
2019-03-31T00:59:15.206Z,83.50
2019-03-31T01:01:52.506Z,82.10
2019-03-31T01:04:24.994Z,83.40
2019-03-31T01:06:53.687Z,82.50
2019-03-31T01:09:26.447Z,83.90
2019-03-31T01:11:55.154Z,83.10
2019-03-31T01:14:23.729Z,83.00
2019-03-31T01:16:53.396Z,82.80
2019-03-31T01:19:22.153Z,81.80
2019-03-31T01:21:50.182Z,83.10
2019-03-31T01:24:19.865Z,84.50
2019-03-31T01:26:47.793Z,83.40
2019-03-31T01:29:16.334Z,84.50
2019-03-31T01:31:50.672Z,87.70
2019-03-31T01:34:14.354Z,85.30
2019-03-31T01:36:42.398Z,84.70
2019-03-31T01:39:10.373Z,84.50
2019-03-31T01:41:38.500Z,83.80
2019-03-31T01:44:06.428Z,82.50
2019-03-31T01:46:34.414Z,86.60
2019-03-31T01:49:02.338Z,86.40
2019-03-31T01:51:30.286Z,87.00
2019-03-31T01:53:58.694Z,86.50
2019-03-31T01:56:26.729Z,90.30
2019-03-31T01:58:54.769Z,88.10
2019-03-31T02:01:22.759Z,87.10
2019-03-31T02:03:50.806Z,87.40
2019-03-31T02:06:20.533Z,89.40
2019-03-31T02:08:48.560Z,86.10
2019-03-31T02:11:16.493Z,87.20
2019-03-31T02:13:44.434Z,86.20
2019-03-31T02:16:13.505Z,87.30
2019-03-31T02:18:41.611Z,86.50
2019-03-31T02:21:09.655Z,86.60
2019-03-31T02:23:37.736Z,86.60
2019-03-31T02:26:05.920Z,87.00
2019-03-31T02:28:34.054Z,86.40
2019-03-31T02:31:02.042Z,85.00
2019-03-31T02:33:30.379Z,85.00
2019-03-31T02:35:58.406Z,84.90
2019-03-31T02:38:26.831Z,83.80
2019-03-31T02:40:55.012Z,86.20
2019-03-31T02:43:23.247Z,84.10
2019-03-31T02:45:51.252Z,84.90
2019-03-31T02:48:19.303Z,85.80
2019-03-31T02:50:51.942Z,86.00
2019-03-31T02:53:20.595Z,85.70
2019-03-31T02:55:48.842Z,85.80
2019-03-31T02:58:17.494Z,85.80
2019-03-31T03:00:45.768Z,85.90
2019-03-31T03:03:15.874Z,86.00
2019-03-31T03:05:44.516Z,86.20
2019-03-31T03:08:13.659Z,85.90
2019-03-31T03:10:43.636Z,85.80
2019-03-31T03:13:13.637Z,85.60
2019-03-31T03:16:27.073Z,85.40
2019-03-31T03:18:55.516Z,86.10
2019-03-31T03:21:24.933Z,85.40
2019-03-31T03:23:53.806Z,86.00
2019-03-31T03:26:22.043Z,85.50
2019-03-31T03:28:50.345Z,85.50
2019-03-31T03:31:19.009Z,85.50
2019-03-31T03:33:47.411Z,83.00
2019-03-31T03:36:15.564Z,86.20
2019-03-31T03:38:44.256Z,86.20
2019-03-31T03:41:12.210Z,85.60
2019-03-31T03:43:53.978Z,86.30
2019-03-31T03:46:10.227Z,86.20
2019-03-31T03:48:38.159Z,85.90
2019-03-31T03:51:06.187Z,85.90
2019-03-31T03:53:34.293Z,86.80
2019-03-31T03:56:02.443Z,85.60
2019-03-31T03:58:30.484Z,85.20
2019-03-31T04:00:58.675Z,85.80
2019-03-31T04:03:30.346Z,86.10
2019-03-31T04:05:58.140Z,85.40
2019-03-31T04:08:26.148Z,85.80
2019-03-31T04:11:13.570Z,85.90
2019-03-31T04:13:41.647Z,85.60
2019-03-31T04:16:09.828Z,85.90
2019-03-31T04:18:38.571Z,85.80
2019-03-31T04:21:06.998Z,86.10
2019-03-31T04:23:34.936Z,86.00
2019-03-31T04:26:02.983Z,86.00
2019-03-31T04:28:30.964Z,85.50
2019-03-31T04:30:58.807Z,85.70
2019-03-31T04:33:26.749Z,85.70
2019-03-31T04:35:55.003Z,85.70
2019-03-31T04:38:23.043Z,85.40
2019-03-31T04:40:50.991Z,85.50
2019-03-31T04:43:18.964Z,85.80
2019-03-31T04:45:46.909Z,86.40
2019-03-31T04:48:14.947Z,85.40
2019-03-31T04:50:43.291Z,85.90
2019-03-31T04:53:11.230Z,86.00
2019-03-31T04:55:39.156Z,85.90
2019-03-31T04:58:07.310Z,86.20
2019-03-31T05:00:35.264Z,85.80
2019-03-31T05:03:03.308Z,86.60
2019-03-31T05:05:31.442Z,86.30
2019-03-31T05:07:59.377Z,85.80
2019-03-31T05:10:27.322Z,85.90
2019-03-31T05:12:55.354Z,86.10
2019-03-31T05:15:25.094Z,85.90
2019-03-31T05:17:53.366Z,86.10
2019-03-31T05:20:22.762Z,85.20
2019-03-31T05:22:52.891Z,86.20
2019-03-31T05:25:20.569Z,86.50
2019-03-31T05:27:48.732Z,85.50
2019-03-31T05:30:18.502Z,85.60
2019-03-31T05:32:46.544Z,85.60
2019-03-31T05:35:14.510Z,85.90
2019-03-31T05:37:50.944Z,85.60
2019-03-31T05:40:12.414Z,85.90
2019-03-31T05:42:40.410Z,86.60
2019-03-31T05:45:10.162Z,85.40
2019-03-31T05:47:38.209Z,86.00
2019-03-31T05:50:06.494Z,86.10
2019-03-31T05:52:34.417Z,86.30
2019-03-31T05:55:02.451Z,86.10
2019-03-31T05:57:32.272Z,85.30
2019-03-31T06:00:00.526Z,85.10
2019-03-31T06:02:28.563Z,84.90
2019-03-31T06:04:56.547Z,84.40
2019-03-31T06:07:24.579Z,84.40
2019-03-31T06:09:52.520Z,84.30
2019-03-31T06:12:20.864Z,83.00
2019-03-31T06:14:48.906Z,82.80
2019-03-31T06:17:17.227Z,82.30
2019-03-31T06:19:45.911Z,82.30
2019-03-31T06:22:13.845Z,83.10
2019-03-31T06:24:41.892Z,81.90
2019-03-31T06:27:09.878Z,82.20
2019-03-31T06:29:37.964Z,82.20
2019-03-31T06:32:06.001Z,82.30
2019-03-31T06:34:46.695Z,81.10
2019-03-31T06:37:05.050Z,80.50
2019-03-31T06:39:34.383Z,79.50
2019-03-31T06:42:02.427Z,78.90
2019-03-31T06:44:30.522Z,78.80
2019-03-31T06:46:58.579Z,78.70
2019-03-31T06:49:26.530Z,78.00
2019-03-31T06:51:54.462Z,77.80
2019-03-31T06:54:22.553Z,77.30
2019-03-31T06:56:50.565Z,76.80
2019-03-31T06:59:18.509Z,76.60
2019-03-31T07:01:46.463Z,76.40
2019-03-31T07:04:14.558Z,76.20
2019-03-31T07:06:43.798Z,74.80
2019-03-31T07:09:11.745Z,74.60
2019-03-31T07:11:39.732Z,74.60
2019-03-31T07:14:10.614Z,74.60
2019-03-31T07:16:38.734Z,73.10
2019-03-31T07:19:07.221Z,72.80
2019-03-31T07:21:35.158Z,71.90
2019-03-31T07:24:03.091Z,72.40
2019-03-31T07:26:31.103Z,72.00
2019-03-31T07:28:59.158Z,71.60
2019-03-31T07:31:27.106Z,71.30
2019-03-31T07:33:55.166Z,71.70
2019-03-31T07:36:23.016Z,70.00
2019-03-31T07:38:51.161Z,71.40
2019-03-31T07:41:19.312Z,70.60
2019-03-31T07:43:47.204Z,70.00
2019-03-31T07:46:15.251Z,69.30
2019-03-31T07:48:43.214Z,69.30
2019-03-31T07:51:11.164Z,68.80
2019-03-31T07:53:39.198Z,68.90
2019-03-31T07:56:07.303Z,67.40
2019-03-31T07:58:35.342Z,68.00
2019-03-31T08:01:03.377Z,66.90
2019-03-31T08:03:31.389Z,66.60
2019-03-31T08:05:59.435Z,67.40
2019-03-31T08:08:27.361Z,66.40
2019-03-31T08:10:55.466Z,65.10
2019-03-31T08:13:23.502Z,65.60
2019-03-31T08:15:51.434Z,65.20
2019-03-31T08:18:19.710Z,63.50
2019-03-31T08:20:48.207Z,64.90
2019-03-31T08:23:17.339Z,65.30
2019-03-31T08:25:45.340Z,66.00
2019-03-31T08:28:13.444Z,63.50
2019-03-31T08:30:41.323Z,63.40
2019-03-31T08:33:11.233Z,63.90
2019-03-31T08:35:47.332Z,63.80
2019-03-31T08:38:08.919Z,63.40
2019-03-31T08:40:36.899Z,62.80
2019-03-31T08:43:06.061Z,62.30
2019-03-31T08:45:34.038Z,62.40
2019-03-31T08:48:02.138Z,62.30
2019-03-31T08:50:30.097Z,61.80
2019-03-31T08:52:58.270Z,60.90
2019-03-31T08:55:26.528Z,60.70
2019-03-31T08:57:56.011Z,60.30
2019-03-31T09:00:58.617Z,61.50
2019-03-31T09:03:26.554Z,60.10
2019-03-31T09:06:01.837Z,59.20
2019-03-31T09:08:24.387Z,58.90
2019-03-31T09:10:52.426Z,59.50
2019-03-31T09:13:20.366Z,59.40
2019-03-31T09:15:49.454Z,59.50
2019-03-31T09:18:17.966Z,59.00
2019-03-31T09:20:47.198Z,58.40
2019-03-31T09:23:15.179Z,58.00
2019-03-31T09:25:43.135Z,57.70
2019-03-31T09:28:11.382Z,55.50
2019-03-31T09:30:41.313Z,57.70
2019-03-31T09:33:09.353Z,57.20
2019-03-31T09:35:37.404Z,57.40
2019-03-31T09:38:05.475Z,56.90
2019-03-31T09:40:33.513Z,56.40
2019-03-31T09:43:01.482Z,56.20
2019-03-31T09:45:29.855Z,55.30
2019-03-31T09:47:57.897Z,55.10
2019-03-31T09:50:25.834Z,55.30
2019-03-31T09:52:54.096Z,55.30
2019-03-31T09:55:23.211Z,55.60
2019-03-31T09:57:53.110Z,56.00
2019-03-31T10:00:36.122Z,54.50
2019-03-31T10:03:05.268Z,55.10
2019-03-31T10:05:33.210Z,54.60
2019-03-31T10:08:01.286Z,53.80
2019-03-31T10:10:31.963Z,53.80
2019-03-31T10:13:00.265Z,52.30
2019-03-31T10:15:28.582Z,52.90
2019-03-31T10:17:56.776Z,49.30
2019-03-31T10:20:24.736Z,49.40
2019-03-31T10:22:52.814Z,49.40
2019-03-31T10:25:20.755Z,48.10
2019-03-31T10:27:48.897Z,48.50
2019-03-31T10:30:23.278Z,47.50
2019-03-31T10:32:51.313Z,48.00
2019-03-31T10:35:19.153Z,46.90
2019-03-31T10:37:47.171Z,46.60
2019-03-31T10:40:15.520Z,45.40
2019-03-31T10:42:43.561Z,45.20
2019-03-31T10:45:11.943Z,45.80
2019-03-31T10:47:39.977Z,45.00
2019-03-31T10:50:08.214Z,46.10
2019-03-31T10:52:36.329Z,45.40
2019-03-31T10:55:05.495Z,44.10
2019-03-31T10:57:33.458Z,44.50
2019-03-31T11:00:01.734Z,43.70
2019-03-31T11:02:29.715Z,44.20
2019-03-31T11:04:57.665Z,43.70
2019-03-31T11:07:25.750Z,43.40
2019-03-31T11:09:53.704Z,43.50
2019-03-31T11:12:23.448Z,44.10
2019-03-31T11:14:51.434Z,42.30
2019-03-31T11:17:19.384Z,43.40
2019-03-31T11:19:48.377Z,43.90
2019-03-31T11:22:42.755Z,43.70
2019-03-31T11:25:20.754Z,43.60
2019-03-31T11:27:43.816Z,43.00
2019-03-31T11:30:12.507Z,43.70
2019-03-31T11:32:40.489Z,39.90
2019-03-31T11:35:08.432Z,42.20
2019-03-31T11:37:36.375Z,42.70
2019-03-31T11:40:05.716Z,42.60
2019-03-31T11:42:33.752Z,41.50
2019-03-31T11:45:01.806Z,41.50
2019-03-31T11:47:29.771Z,41.90
2019-03-31T11:49:57.697Z,42.60
2019-03-31T11:52:25.736Z,40.30
2019-03-31T11:54:53.888Z,42.00
2019-03-31T11:57:21.860Z,42.90
2019-03-31T11:59:51.688Z,41.80
2019-03-31T12:02:26.936Z,41.20
2019-03-31T12:04:51.523Z,42.20
2019-03-31T12:07:28.228Z,40.70
2019-03-31T12:09:51.594Z,41.20
2019-03-31T12:12:19.529Z,39.90
2019-03-31T12:14:59.909Z,41.70
2019-03-31T12:17:17.274Z,41.60
2019-03-31T12:19:48.700Z,40.20
2019-03-31T12:22:16.160Z,39.00
2019-03-31T12:24:44.117Z,39.70
2019-03-31T12:27:12.488Z,39.10
2019-03-31T12:29:40.531Z,39.70
2019-03-31T12:32:08.592Z,40.20
2019-03-31T12:34:36.824Z,40.70
2019-03-31T12:37:04.764Z,39.40
2019-03-31T12:39:32.804Z,37.50
2019-03-31T12:42:01.160Z,38.80
2019-03-31T12:44:29.112Z,39.20
2019-03-31T12:46:57.045Z,39.10
2019-03-31T12:49:25.289Z,38.20
2019-03-31T12:51:55.097Z,38.00
2019-03-31T12:54:22.968Z,38.80
2019-03-31T12:56:50.995Z,38.00
2019-03-31T12:59:20.144Z,38.10
2019-03-31T13:01:48.112Z,38.00
2019-03-31T13:04:17.096Z,37.40
2019-03-31T13:06:45.272Z,38.00
2019-03-31T13:09:13.308Z,37.40
2019-03-31T13:11:42.383Z,37.00
2019-03-31T13:14:10.340Z,36.70
2019-03-31T13:16:38.293Z,37.00
2019-03-31T13:19:06.486Z,37.10
2019-03-31T13:21:35.013Z,36.20
2019-03-31T13:24:03.181Z,37.20
2019-03-31T13:26:31.192Z,36.60
2019-03-31T13:28:59.235Z,35.80
2019-03-31T13:31:27.178Z,36.40
2019-03-31T13:33:55.377Z,36.80
2019-03-31T13:36:23.312Z,36.60
2019-03-31T13:38:53.044Z,36.70
2019-03-31T13:41:22.835Z,36.80
2019-03-31T13:43:50.875Z,36.10
2019-03-31T13:46:18.933Z,36.30
2019-03-31T13:48:46.893Z,37.20
2019-03-31T13:51:15.040Z,37.50
2019-03-31T13:53:43.090Z,36.90
2019-03-31T13:56:11.494Z,37.20
2019-03-31T13:58:41.540Z,37.30
2019-03-31T14:01:09.506Z,36.50
2019-03-31T14:03:37.490Z,36.50
2019-03-31T14:06:07.241Z,36.70
2019-03-31T14:08:35.183Z,37.10
2019-03-31T14:11:03.954Z,37.10
2019-03-31T14:13:33.586Z,37.00
2019-03-31T14:16:01.558Z,37.20
2019-03-31T14:18:29.636Z,36.70
2019-03-31T14:20:57.856Z,36.40
2019-03-31T14:23:26.476Z,36.70
2019-03-31T14:25:54.657Z,37.50
2019-03-31T14:28:22.698Z,35.90
2019-03-31T14:30:50.654Z,34.60
2019-03-31T14:33:18.802Z,33.60
2019-03-31T14:35:46.746Z,33.20
2019-03-31T14:38:14.899Z,33.50
2019-03-31T14:40:42.910Z,32.70
2019-03-31T14:43:10.878Z,33.50
2019-03-31T14:45:40.626Z,33.40
2019-03-31T14:48:09.836Z,33.50
2019-03-31T14:50:38.728Z,32.80
2019-03-31T14:53:07.284Z,31.50
2019-03-31T14:55:35.437Z,31.70
2019-03-31T14:58:03.608Z,32.00
2019-03-31T15:00:31.750Z,31.20
2019-03-31T15:02:59.967Z,31.10
2019-03-31T15:05:28.002Z,30.60
2019-03-31T15:07:58.609Z,30.40
2019-03-31T15:10:27.219Z,30.60
2019-03-31T15:12:55.162Z,31.20
2019-03-31T15:15:23.199Z,30.00
2019-03-31T15:17:51.486Z,31.40
2019-03-31T15:20:19.745Z,29.40
2019-03-31T15:22:51.258Z,29.90
2019-03-31T15:25:17.827Z,29.60
2019-03-31T15:27:45.867Z,28.90
2019-03-31T15:30:14.137Z,29.60
2019-03-31T15:32:42.214Z,29.00
2019-03-31T15:35:10.278Z,30.60
2019-03-31T15:37:38.210Z,29.00
2019-03-31T15:40:06.498Z,29.50
2019-03-31T15:42:34.465Z,29.30
2019-03-31T15:45:02.426Z,29.10
2019-03-31T15:47:30.426Z,29.10
2019-03-31T15:49:58.382Z,29.10
2019-03-31T15:52:26.427Z,29.60
2019-03-31T15:54:54.560Z,29.50
2019-03-31T15:57:22.514Z,30.40
2019-03-31T15:59:49.465Z,32.50
2019-03-31T16:02:18.154Z,34.00
2019-03-31T16:04:46.182Z,35.20
2019-03-31T16:07:15.338Z,35.60
2019-03-31T16:09:42.816Z,36.70
2019-03-31T16:12:10.212Z,37.60
2019-03-31T16:14:37.594Z,38.60
2019-03-31T16:17:05.254Z,38.90
2019-03-31T16:19:32.657Z,39.20
2019-03-31T16:22:00.148Z,40.00
2019-03-31T16:24:37.489Z,40.20
2019-03-31T16:27:04.902Z,40.00
2019-03-31T16:29:32.291Z,41.30
2019-03-31T16:31:59.986Z,40.70
2019-03-31T16:34:27.428Z,41.40
2019-03-31T16:36:54.810Z,40.90
2019-03-31T16:39:22.261Z,41.80
2019-03-31T16:41:49.665Z,41.10
2019-03-31T16:44:17.086Z,43.00
2019-03-31T16:46:44.543Z,43.00
2019-03-31T16:49:11.954Z,44.10
2019-03-31T16:51:40.446Z,44.00
2019-03-31T16:54:08.164Z,44.80
2019-03-31T16:56:35.614Z,44.20
2019-03-31T16:59:04.727Z,44.20
2019-03-31T17:01:32.310Z,44.80
2019-03-31T17:03:59.690Z,45.20
2019-03-31T17:06:27.096Z,45.10
2019-03-31T17:08:54.540Z,45.00
2019-03-31T17:11:21.922Z,46.50
2019-03-31T17:13:49.331Z,46.00
2019-03-31T17:16:16.866Z,46.30
2019-03-31T17:18:44.270Z,46.50
2019-03-31T17:21:12.469Z,46.90
2019-03-31T17:23:40.366Z,47.70
2019-03-31T17:26:07.755Z,48.30
2019-03-31T17:28:35.162Z,47.80
2019-03-31T17:31:02.753Z,47.50
2019-03-31T17:33:30.371Z,48.10
2019-03-31T17:35:57.843Z,48.80
2019-03-31T17:38:26.614Z,48.70
2019-03-31T17:40:54.012Z,48.50
2019-03-31T17:43:21.403Z,49.00
2019-03-31T17:45:48.839Z,48.70
2019-03-31T17:48:16.235Z,49.20
2019-03-31T17:50:43.620Z,50.60
2019-03-31T17:53:11.466Z,51.00
2019-03-31T17:55:38.854Z,50.90
2019-03-31T17:58:06.250Z,51.20
2019-03-31T18:00:33.851Z,51.10
2019-03-31T18:03:01.242Z,51.90
2019-03-31T18:05:28.641Z,52.20
2019-03-31T18:07:56.230Z,52.80
2019-03-31T18:10:23.638Z,53.70
2019-03-31T18:12:51.039Z,52.80
2019-03-31T18:15:18.487Z,55.00
2019-03-31T18:17:45.884Z,54.90
2019-03-31T18:20:13.294Z,54.80
2019-03-31T18:22:40.899Z,55.20
2019-03-31T18:25:09.027Z,54.60
2019-03-31T18:27:36.426Z,55.10
2019-03-31T18:30:05.673Z,55.70
2019-03-31T18:32:33.065Z,56.20
2019-03-31T18:35:00.592Z,56.20
2019-03-31T18:37:28.034Z,55.50
2019-03-31T18:39:57.258Z,56.80
2019-03-31T18:42:24.674Z,58.90
2019-03-31T18:44:52.140Z,57.20
2019-03-31T18:47:19.563Z,58.20
2019-03-31T18:49:47.111Z,57.60
2019-03-31T18:52:14.650Z,57.60
2019-03-31T18:55:10.995Z,59.10
2019-03-31T18:57:57.950Z,59.10
2019-03-31T19:00:43.938Z,62.60
2019-03-31T19:03:36.933Z,59.70
2019-03-31T19:06:32.916Z,59.80
2019-03-31T19:09:34.838Z,59.80
2019-03-31T19:12:21.160Z,60.10
2019-03-31T19:15:08.044Z,60.00
2019-03-31T19:17:55.150Z,61.20
2019-03-31T19:20:31.284Z,61.10
2019-03-31T19:23:19.089Z,60.90
2019-03-31T19:26:17.851Z,61.30
2019-03-31T19:29:03.636Z,61.50
2019-03-31T19:31:53.635Z,61.60
2019-03-31T19:34:43.439Z,61.80
2019-03-31T19:37:18.265Z,61.70
2019-03-31T19:40:11.155Z,61.90
2019-03-31T19:42:58.264Z,62.50
2019-03-31T19:45:55.702Z,62.60
2019-03-31T19:48:36.502Z,62.90
2019-03-31T19:51:22.020Z,64.20
2019-03-31T19:54:02.922Z,69.80
2019-03-31T19:56:43.265Z,65.60
2019-03-31T19:59:27.208Z,65.10
2019-03-31T20:02:25.266Z,65.40
2019-03-31T20:05:21.009Z,66.00
2019-03-31T20:08:04.697Z,67.10
2019-03-31T20:10:52.015Z,66.40
2019-03-31T20:13:35.882Z,66.00
2019-03-31T20:16:15.183Z,66.70
2019-03-31T20:18:53.897Z,66.90
2019-03-31T20:21:41.572Z,66.20
2019-03-31T20:24:16.670Z,66.40
2019-03-31T20:27:07.305Z,66.90
2019-03-31T20:30:01.755Z,68.50
2019-03-31T20:32:54.774Z,69.40
2019-03-31T20:35:47.534Z,67.20
2019-03-31T20:38:21.869Z,68.00
2019-03-31T20:41:08.784Z,67.10
2019-03-31T20:43:43.128Z,66.80
2019-03-31T20:46:10.521Z,67.40
2019-03-31T20:48:37.918Z,67.50
2019-03-31T20:51:06.052Z,68.10
2019-03-31T20:53:33.447Z,66.70
2019-03-31T20:56:00.862Z,68.00
2019-03-31T20:58:28.297Z,68.20
2019-03-31T21:00:55.692Z,68.80
2019-03-31T21:03:24.838Z,67.80
2019-03-31T21:05:52.298Z,68.50
2019-03-31T21:08:19.705Z,68.40
2019-03-31T21:10:47.107Z,69.30
2019-03-31T21:13:14.512Z,68.90
2019-03-31T21:15:41.915Z,69.30
2019-03-31T21:18:09.294Z,69.90
2019-03-31T21:20:36.782Z,70.10
2019-03-31T21:23:04.412Z,70.80
2019-03-31T21:25:32.506Z,70.30
2019-03-31T21:28:00.131Z,73.80
2019-03-31T21:30:27.527Z,73.00
2019-03-31T21:32:54.915Z,73.10
2019-03-31T21:35:22.738Z,71.10
2019-03-31T21:37:50.285Z,73.00
2019-03-31T21:40:17.656Z,72.60
2019-03-31T21:42:45.217Z,73.30
2019-03-31T21:45:12.603Z,71.60
2019-03-31T21:47:40.012Z,72.50
2019-03-31T21:50:08.171Z,73.30
2019-03-31T21:52:35.560Z,74.50
2019-03-31T21:55:03.067Z,73.00
2019-03-31T21:57:30.612Z,72.90
2019-03-31T21:59:58.001Z,73.30
2019-03-31T22:02:25.369Z,75.00
2019-03-31T22:04:52.819Z,73.30
2019-03-31T22:07:20.208Z,72.10
2019-03-31T22:09:47.603Z,74.30
2019-03-31T22:12:15.074Z,78.00
2019-03-31T22:14:42.472Z,80.80
2019-03-31T22:17:09.872Z,78.30
2019-03-31T22:19:37.329Z,76.50
2019-03-31T22:22:04.895Z,75.90
2019-03-31T22:24:32.520Z,76.70
2019-03-31T22:26:59.949Z,75.80
2019-03-31T22:29:27.361Z,76.10
2019-03-31T22:31:54.755Z,76.10
2019-03-31T22:34:22.445Z,80.50
2019-03-31T22:36:49.839Z,78.50
2019-03-31T22:39:17.231Z,80.20
2019-03-31T22:41:44.666Z,76.70
2019-03-31T22:44:12.054Z,78.30
2019-03-31T22:46:53.442Z,76.20
2019-03-31T22:49:08.694Z,74.40
2019-03-31T22:51:36.148Z,75.20
2019-03-31T22:54:03.448Z,76.00
2019-03-31T22:56:31.022Z,76.90
2019-03-31T22:58:58.424Z,76.90
2019-03-31T23:01:25.864Z,76.70
2019-03-31T23:03:53.283Z,76.20
2019-03-31T23:06:20.678Z,76.60
2019-03-31T23:08:48.076Z,76.50
2019-03-31T23:11:16.688Z,75.10
2019-03-31T23:13:44.064Z,75.80
2019-03-31T23:16:11.449Z,76.40
2019-03-31T23:18:39.110Z,76.10
2019-03-31T23:21:06.499Z,75.70
2019-03-31T23:23:34.256Z,75.50
2019-03-31T23:26:02.019Z,75.30
2019-03-31T23:28:29.435Z,81.60
2019-03-31T23:30:56.823Z,84.00
2019-03-31T23:33:24.267Z,79.50
2019-03-31T23:35:51.659Z,79.20
2019-03-31T23:38:19.057Z,78.80
2019-03-31T23:40:46.483Z,77.50
2019-03-31T23:43:13.883Z,78.80
2019-03-31T23:45:41.303Z,77.70
2019-03-31T23:48:08.855Z,79.20
2019-03-31T23:50:36.243Z,79.20
2019-03-31T23:53:03.635Z,79.00
2019-03-31T23:55:31.088Z,79.30
2019-03-31T23:57:58.499Z,78.00
